sensor_id;sensor_type;location;lat;lon;timestamp;temperature;humidity
66312;HTU21D;53114;51.138;6.008;2023-06-14T00:00:21;18.87;57.51
66312;HTU21D;53114;51.138;6.008;2023-06-14T00:02:48;18.85;57.28
66312;HTU21D;53114;51.138;6.008;2023-06-14T00:05:14;18.82;57.76
66312;HTU21D;53114;51.138;6.008;2023-06-14T00:07:41;18.76;58.21
66312;HTU21D;53114;51.138;6.008;2023-06-14T00:10:14;18.69;58.22
66312;HTU21D;53114;51.138;6.008;2023-06-14T00:12:41;18.68;58.57
66312;HTU21D;53114;51.138;6.008;2023-06-14T00:15:08;18.69;58.64
66312;HTU21D;53114;51.138;6.008;2023-06-14T00:17:37;18.63;58.38
66312;HTU21D;53114;51.138;6.008;2023-06-14T00:20:04;18.54;58.40
66312;HTU21D;53114;51.138;6.008;2023-06-14T00:22:34;18.44;59.36
66312;HTU21D;53114;51.138;6.008;2023-06-14T00:25:02;18.38;59.93
66312;HTU21D;53114;51.138;6.008;2023-06-14T00:27:28;18.37;59.60
66312;HTU21D;53114;51.138;6.008;2023-06-14T00:29:54;18.33;60.00
66312;HTU21D;53114;51.138;6.008;2023-06-14T00:32:20;18.25;62.40
66312;HTU21D;53114;51.138;6.008;2023-06-14T00:34:50;18.24;65.30
66312;HTU21D;53114;51.138;6.008;2023-06-14T00:37:16;18.26;64.59
66312;HTU21D;53114;51.138;6.008;2023-06-14T00:39:42;18.20;64.06
66312;HTU21D;53114;51.138;6.008;2023-06-14T00:42:08;18.10;64.52
66312;HTU21D;53114;51.138;6.008;2023-06-14T00:44:34;18.00;64.28
66312;HTU21D;53114;51.138;6.008;2023-06-14T00:47:01;17.99;63.91
66312;HTU21D;53114;51.138;6.008;2023-06-14T00:49:29;17.99;63.34
66312;HTU21D;53114;51.138;6.008;2023-06-14T00:51:56;17.95;63.55
66312;HTU21D;53114;51.138;6.008;2023-06-14T00:54:22;17.87;64.59
66312;HTU21D;53114;51.138;6.008;2023-06-14T00:56:48;17.84;67.70
66312;HTU21D;53114;51.138;6.008;2023-06-14T00:59:14;17.82;69.50
66312;HTU21D;53114;51.138;6.008;2023-06-14T01:01:41;17.75;70.44
66312;HTU21D;53114;51.138;6.008;2023-06-14T01:04:08;17.61;71.45
66312;HTU21D;53114;51.138;6.008;2023-06-14T01:07:02;17.50;70.57
66312;HTU21D;53114;51.138;6.008;2023-06-14T01:12:19;17.44;69.77
66312;HTU21D;53114;51.138;6.008;2023-06-14T01:14:48;17.36;70.40
66312;HTU21D;53114;51.138;6.008;2023-06-14T01:17:14;17.24;70.93
66312;HTU21D;53114;51.138;6.008;2023-06-14T01:19:43;17.15;71.55
66312;HTU21D;53114;51.138;6.008;2023-06-14T01:22:10;17.16;73.39
66312;HTU21D;53114;51.138;6.008;2023-06-14T01:24:37;17.10;76.33
66312;HTU21D;53114;51.138;6.008;2023-06-14T01:27:06;17.08;78.79
66312;HTU21D;53114;51.138;6.008;2023-06-14T01:29:33;17.02;80.94
66312;HTU21D;53114;51.138;6.008;2023-06-14T01:32:02;16.96;81.86
66312;HTU21D;53114;51.138;6.008;2023-06-14T01:34:30;16.94;81.75
66312;HTU21D;53114;51.138;6.008;2023-06-14T01:37:00;16.94;80.33
66312;HTU21D;53114;51.138;6.008;2023-06-14T01:39:28;16.88;79.03
66312;HTU21D;53114;51.138;6.008;2023-06-14T01:41:55;16.81;78.37
66312;HTU21D;53114;51.138;6.008;2023-06-14T01:44:23;16.80;77.57
66312;HTU21D;53114;51.138;6.008;2023-06-14T01:46:49;16.76;77.48
66312;HTU21D;53114;51.138;6.008;2023-06-14T01:49:15;16.74;77.79
66312;HTU21D;53114;51.138;6.008;2023-06-14T01:51:41;16.70;78.26
66312;HTU21D;53114;51.138;6.008;2023-06-14T01:54:08;16.62;78.87
66312;HTU21D;53114;51.138;6.008;2023-06-14T01:56:34;16.61;78.06
66312;HTU21D;53114;51.138;6.008;2023-06-14T01:59:00;16.56;78.01
66312;HTU21D;53114;51.138;6.008;2023-06-14T02:01:26;16.46;78.76
66312;HTU21D;53114;51.138;6.008;2023-06-14T02:03:52;16.43;78.89
66312;HTU21D;53114;51.138;6.008;2023-06-14T02:06:20;16.34;79.17
66312;HTU21D;53114;51.138;6.008;2023-06-14T02:08:46;16.33;80.14
66312;HTU21D;53114;51.138;6.008;2023-06-14T02:11:12;16.33;81.37
66312;HTU21D;53114;51.138;6.008;2023-06-14T02:13:38;16.28;83.36
66312;HTU21D;53114;51.138;6.008;2023-06-14T02:16:04;16.27;84.71
66312;HTU21D;53114;51.138;6.008;2023-06-14T02:18:31;16.22;83.97
66312;HTU21D;53114;51.138;6.008;2023-06-14T02:20:57;16.14;85.05
66312;HTU21D;53114;51.138;6.008;2023-06-14T02:23:24;16.06;85.16
66312;HTU21D;53114;51.138;6.008;2023-06-14T02:25:50;16.02;85.46
66312;HTU21D;53114;51.138;6.008;2023-06-14T02:28:16;16.00;85.58
66312;HTU21D;53114;51.138;6.008;2023-06-14T02:30:42;15.97;85.86
66312;HTU21D;53114;51.138;6.008;2023-06-14T02:33:08;15.89;87.35
66312;HTU21D;53114;51.138;6.008;2023-06-14T02:35:39;15.78;88.13
66312;HTU21D;53114;51.138;6.008;2023-06-14T02:38:05;15.76;89.11
66312;HTU21D;53114;51.138;6.008;2023-06-14T02:40:31;15.71;90.05
66312;HTU21D;53114;51.138;6.008;2023-06-14T02:42:57;15.65;90.33
66312;HTU21D;53114;51.138;6.008;2023-06-14T02:45:23;15.62;91.51
66312;HTU21D;53114;51.138;6.008;2023-06-14T02:47:49;15.63;93.34
66312;HTU21D;53114;51.138;6.008;2023-06-14T02:50:15;15.62;96.71
66312;HTU21D;53114;51.138;6.008;2023-06-14T02:52:42;15.62;100.48
66312;HTU21D;53114;51.138;6.008;2023-06-14T02:55:10;15.63;101.37
66312;HTU21D;53114;51.138;6.008;2023-06-14T02:57:36;15.63;100.31
66312;HTU21D;53114;51.138;6.008;2023-06-14T03:00:03;15.60;98.93
66312;HTU21D;53114;51.138;6.008;2023-06-14T03:02:32;15.51;99.07
66312;HTU21D;53114;51.138;6.008;2023-06-14T03:04:59;15.41;98.61
66312;HTU21D;53114;51.138;6.008;2023-06-14T03:07:28;15.36;98.38
66312;HTU21D;53114;51.138;6.008;2023-06-14T03:09:56;15.34;98.49
66312;HTU21D;53114;51.138;6.008;2023-06-14T03:12:22;15.30;97.96
66312;HTU21D;53114;51.138;6.008;2023-06-14T03:14:49;15.25;99.22
66312;HTU21D;53114;51.138;6.008;2023-06-14T03:17:19;15.23;100.61
66312;HTU21D;53114;51.138;6.008;2023-06-14T03:19:45;15.23;100.73
66312;HTU21D;53114;51.138;6.008;2023-06-14T03:22:13;15.26;100.95
66312;HTU21D;53114;51.138;6.008;2023-06-14T03:24:40;15.28;101.38
66312;HTU21D;53114;51.138;6.008;2023-06-14T03:27:10;15.32;102.15
66312;HTU21D;53114;51.138;6.008;2023-06-14T03:29:37;15.33;102.96
66312;HTU21D;53114;51.138;6.008;2023-06-14T03:32:04;15.31;104.17
66312;HTU21D;53114;51.138;6.008;2023-06-14T03:34:36;15.29;105.02
66312;HTU21D;53114;51.138;6.008;2023-06-14T03:37:05;15.25;106.49
66312;HTU21D;53114;51.138;6.008;2023-06-14T03:39:31;15.25;107.08
66312;HTU21D;53114;51.138;6.008;2023-06-14T03:41:57;15.27;105.76
66312;HTU21D;53114;51.138;6.008;2023-06-14T03:44:26;15.27;104.53
66312;HTU21D;53114;51.138;6.008;2023-06-14T03:46:52;15.26;104.05
66312;HTU21D;53114;51.138;6.008;2023-06-14T03:49:20;15.27;103.26
66312;HTU21D;53114;51.138;6.008;2023-06-14T03:51:47;15.29;102.34
66312;HTU21D;53114;51.138;6.008;2023-06-14T03:54:19;15.26;101.83
66312;HTU21D;53114;51.138;6.008;2023-06-14T03:56:48;15.26;102.17
66312;HTU21D;53114;51.138;6.008;2023-06-14T03:59:14;15.30;102.26
66312;HTU21D;53114;51.138;6.008;2023-06-14T04:01:40;15.29;102.24
66312;HTU21D;53114;51.138;6.008;2023-06-14T04:04:13;15.28;101.93
66312;HTU21D;53114;51.138;6.008;2023-06-14T04:06:42;15.26;102.06
66312;HTU21D;53114;51.138;6.008;2023-06-14T04:09:09;15.30;102.31
66312;HTU21D;53114;51.138;6.008;2023-06-14T04:11:35;15.33;103.24
66312;HTU21D;53114;51.138;6.008;2023-06-14T04:14:02;15.38;103.97
66312;HTU21D;53114;51.138;6.008;2023-06-14T04:16:29;15.43;103.75
66312;HTU21D;53114;51.138;6.008;2023-06-14T04:18:55;15.44;104.55
66312;HTU21D;53114;51.138;6.008;2023-06-14T04:21:22;15.44;105.54
66312;HTU21D;53114;51.138;6.008;2023-06-14T04:23:50;15.42;106.06
66312;HTU21D;53114;51.138;6.008;2023-06-14T04:26:20;15.40;107.23
66312;HTU21D;53114;51.138;6.008;2023-06-14T04:28:46;15.42;108.16
66312;HTU21D;53114;51.138;6.008;2023-06-14T04:31:12;15.42;109.06
66312;HTU21D;53114;51.138;6.008;2023-06-14T04:33:38;15.40;110.39
66312;HTU21D;53114;51.138;6.008;2023-06-14T04:36:10;15.37;111.97
66312;HTU21D;53114;51.138;6.008;2023-06-14T04:38:44;15.40;113.29
66312;HTU21D;53114;51.138;6.008;2023-06-14T04:41:12;15.45;113.74
66312;HTU21D;53114;51.138;6.008;2023-06-14T04:43:40;15.51;113.94
66312;HTU21D;53114;51.138;6.008;2023-06-14T04:46:09;15.59;114.02
66312;HTU21D;53114;51.138;6.008;2023-06-14T04:48:39;15.71;112.38
66312;HTU21D;53114;51.138;6.008;2023-06-14T04:51:11;15.81;110.84
66312;HTU21D;53114;51.138;6.008;2023-06-14T04:53:38;15.87;109.48
66312;HTU21D;53114;51.138;6.008;2023-06-14T04:56:04;15.93;108.44
66312;HTU21D;53114;51.138;6.008;2023-06-14T04:58:32;16.01;107.75
66312;HTU21D;53114;51.138;6.008;2023-06-14T05:00:59;16.06;107.62
66312;HTU21D;53114;51.138;6.008;2023-06-14T05:03:26;16.13;107.24
66312;HTU21D;53114;51.138;6.008;2023-06-14T05:05:53;16.21;107.38
66312;HTU21D;53114;51.138;6.008;2023-06-14T05:08:20;16.27;107.08
66312;HTU21D;53114;51.138;6.008;2023-06-14T05:10:49;16.33;106.63
66312;HTU21D;53114;51.138;6.008;2023-06-14T05:13:16;16.36;106.39
66312;HTU21D;53114;51.138;6.008;2023-06-14T05:15:44;16.41;106.26
66312;HTU21D;53114;51.138;6.008;2023-06-14T05:18:10;16.47;106.05
66312;HTU21D;53114;51.138;6.008;2023-06-14T05:20:36;16.54;106.94
66312;HTU21D;53114;51.138;6.008;2023-06-14T05:23:02;16.60;107.30
66312;HTU21D;53114;51.138;6.008;2023-06-14T05:25:28;16.69;106.85
66312;HTU21D;53114;51.138;6.008;2023-06-14T05:27:54;16.75;106.98
66312;HTU21D;53114;51.138;6.008;2023-06-14T05:30:20;16.86;106.27
66312;HTU21D;53114;51.138;6.008;2023-06-14T05:32:46;16.99;106.28
66312;HTU21D;53114;51.138;6.008;2023-06-14T05:35:12;17.09;107.92
66312;HTU21D;53114;51.138;6.008;2023-06-14T05:37:38;17.18;109.05
66312;HTU21D;53114;51.138;6.008;2023-06-14T05:40:05;17.28;105.12
66312;HTU21D;53114;51.138;6.008;2023-06-14T05:42:32;17.43;102.81
66312;HTU21D;53114;51.138;6.008;2023-06-14T05:44:58;17.58;102.01
66312;HTU21D;53114;51.138;6.008;2023-06-14T05:47:24;17.66;100.17
66312;HTU21D;53114;51.138;6.008;2023-06-14T05:49:51;17.77;97.45
66312;HTU21D;53114;51.138;6.008;2023-06-14T05:52:17;17.89;96.92
66312;HTU21D;53114;51.138;6.008;2023-06-14T05:54:43;18.03;93.33
66312;HTU21D;53114;51.138;6.008;2023-06-14T05:57:10;18.09;91.95
66312;HTU21D;53114;51.138;6.008;2023-06-14T05:59:37;18.20;94.34
66312;HTU21D;53114;51.138;6.008;2023-06-14T06:02:03;18.33;90.75
66312;HTU21D;53114;51.138;6.008;2023-06-14T06:04:29;18.44;91.43
66312;HTU21D;53114;51.138;6.008;2023-06-14T06:06:56;18.50;95.07
66312;HTU21D;53114;51.138;6.008;2023-06-14T06:09:22;18.56;95.59
66312;HTU21D;53114;51.138;6.008;2023-06-14T06:11:48;18.62;92.86
66312;HTU21D;53114;51.138;6.008;2023-06-14T06:14:14;18.76;87.27
66312;HTU21D;53114;51.138;6.008;2023-06-14T06:16:40;18.87;85.33
66312;HTU21D;53114;51.138;6.008;2023-06-14T06:19:06;18.99;84.52
66312;HTU21D;53114;51.138;6.008;2023-06-14T06:21:32;19.12;84.15
66312;HTU21D;53114;51.138;6.008;2023-06-14T06:23:58;19.21;86.66
66312;HTU21D;53114;51.138;6.008;2023-06-14T06:26:24;19.22;88.59
66312;HTU21D;53114;51.138;6.008;2023-06-14T06:28:52;19.24;86.09
66312;HTU21D;53114;51.138;6.008;2023-06-14T06:31:18;19.33;86.06
66312;HTU21D;53114;51.138;6.008;2023-06-14T06:33:44;19.44;83.30
66312;HTU21D;53114;51.138;6.008;2023-06-14T06:36:10;19.58;73.96
66312;HTU21D;53114;51.138;6.008;2023-06-14T06:38:35;19.73;71.19
66312;HTU21D;53114;51.138;6.008;2023-06-14T06:41:02;19.81;69.07
66312;HTU21D;53114;51.138;6.008;2023-06-14T06:43:27;19.92;67.77
66312;HTU21D;53114;51.138;6.008;2023-06-14T06:45:56;19.98;70.32
66312;HTU21D;53114;51.138;6.008;2023-06-14T06:48:22;20.03;66.11
66312;HTU21D;53114;51.138;6.008;2023-06-14T06:50:48;20.15;65.14
66312;HTU21D;53114;51.138;6.008;2023-06-14T06:53:14;20.13;68.46
66312;HTU21D;53114;51.138;6.008;2023-06-14T06:55:40;20.19;63.77
66312;HTU21D;53114;51.138;6.008;2023-06-14T06:58:06;20.36;60.99
66312;HTU21D;53114;51.138;6.008;2023-06-14T07:00:32;20.51;58.48
66312;HTU21D;53114;51.138;6.008;2023-06-14T07:02:58;20.64;58.54
66312;HTU21D;53114;51.138;6.008;2023-06-14T07:05:24;20.70;59.48
66312;HTU21D;53114;51.138;6.008;2023-06-14T07:07:50;20.73;59.75
66312;HTU21D;53114;51.138;6.008;2023-06-14T07:10:16;20.76;57.76
66312;HTU21D;53114;51.138;6.008;2023-06-14T07:12:42;20.80;57.09
66312;HTU21D;53114;51.138;6.008;2023-06-14T07:15:09;20.91;56.98
66312;HTU21D;53114;51.138;6.008;2023-06-14T07:17:35;21.00;56.28
66312;HTU21D;53114;51.138;6.008;2023-06-14T07:20:05;21.07;56.41
66312;HTU21D;53114;51.138;6.008;2023-06-14T07:22:41;21.13;56.97
66312;HTU21D;53114;51.138;6.008;2023-06-14T07:25:09;21.24;56.97
66312;HTU21D;53114;51.138;6.008;2023-06-14T07:27:35;21.35;56.91
66312;HTU21D;53114;51.138;6.008;2023-06-14T07:30:01;21.47;58.06
66312;HTU21D;53114;51.138;6.008;2023-06-14T07:32:27;22.01;54.52
66312;HTU21D;53114;51.138;6.008;2023-06-14T07:34:53;22.50;52.54
66312;HTU21D;53114;51.138;6.008;2023-06-14T07:37:19;23.35;50.75
66312;HTU21D;53114;51.138;6.008;2023-06-14T07:39:45;25.58;45.35
66312;HTU21D;53114;51.138;6.008;2023-06-14T07:42:11;27.95;39.55
66312;HTU21D;53114;51.138;6.008;2023-06-14T07:44:36;30.02;34.80
66312;HTU21D;53114;51.138;6.008;2023-06-14T07:47:02;31.89;31.25
66312;HTU21D;53114;51.138;6.008;2023-06-14T07:49:28;33.30;29.15
66312;HTU21D;53114;51.138;6.008;2023-06-14T07:51:54;34.75;27.10
66312;HTU21D;53114;51.138;6.008;2023-06-14T07:54:20;36.06;24.36
66312;HTU21D;53114;51.138;6.008;2023-06-14T07:56:50;37.05;22.35
66312;HTU21D;53114;51.138;6.008;2023-06-14T07:59:16;37.90;21.50
66312;HTU21D;53114;51.138;6.008;2023-06-14T08:01:43;38.44;20.20
66312;HTU21D;53114;51.138;6.008;2023-06-14T08:04:15;39.04;19.37
66312;HTU21D;53114;51.138;6.008;2023-06-14T08:06:41;39.23;19.13
66312;HTU21D;53114;51.138;6.008;2023-06-14T08:09:12;39.28;18.86
66312;HTU21D;53114;51.138;6.008;2023-06-14T08:11:38;39.73;17.17
66312;HTU21D;53114;51.138;6.008;2023-06-14T08:14:04;40.00;16.99
66312;HTU21D;53114;51.138;6.008;2023-06-14T08:16:30;39.98;17.10
66312;HTU21D;53114;51.138;6.008;2023-06-14T08:18:56;39.73;17.30
66312;HTU21D;53114;51.138;6.008;2023-06-14T08:21:22;39.66;17.19
66312;HTU21D;53114;51.138;6.008;2023-06-14T08:23:48;39.98;16.76
66312;HTU21D;53114;51.138;6.008;2023-06-14T08:26:14;40.09;16.45
66312;HTU21D;53114;51.138;6.008;2023-06-14T08:28:40;40.15;15.74
66312;HTU21D;53114;51.138;6.008;2023-06-14T08:31:06;40.25;15.02
66312;HTU21D;53114;51.138;6.008;2023-06-14T08:33:32;40.50;14.32
66312;HTU21D;53114;51.138;6.008;2023-06-14T08:35:58;40.69;13.94
66312;HTU21D;53114;51.138;6.008;2023-06-14T08:38:24;41.12;13.72
66312;HTU21D;53114;51.138;6.008;2023-06-14T08:40:52;40.96;13.88
66312;HTU21D;53114;51.138;6.008;2023-06-14T08:43:24;41.01;13.44
66312;HTU21D;53114;51.138;6.008;2023-06-14T08:45:55;41.04;13.10
66312;HTU21D;53114;51.138;6.008;2023-06-14T08:48:26;40.78;12.86
66312;HTU21D;53114;51.138;6.008;2023-06-14T08:50:56;40.46;13.29
66312;HTU21D;53114;51.138;6.008;2023-06-14T08:53:31;40.10;14.06
66312;HTU21D;53114;51.138;6.008;2023-06-14T08:56:01;39.70;14.12
66312;HTU21D;53114;51.138;6.008;2023-06-14T08:58:29;39.19;14.50
66312;HTU21D;53114;51.138;6.008;2023-06-14T09:00:57;38.61;16.06
66312;HTU21D;53114;51.138;6.008;2023-06-14T09:03:25;38.24;16.58
66312;HTU21D;53114;51.138;6.008;2023-06-14T09:05:58;37.97;16.13
66312;HTU21D;53114;51.138;6.008;2023-06-14T09:08:26;37.72;15.85
66312;HTU21D;53114;51.138;6.008;2023-06-14T09:10:53;37.22;16.74
66312;HTU21D;53114;51.138;6.008;2023-06-14T09:13:18;36.75;16.17
66312;HTU21D;53114;51.138;6.008;2023-06-14T09:15:44;36.58;16.80
66312;HTU21D;53114;51.138;6.008;2023-06-14T09:18:10;36.11;17.51
66312;HTU21D;53114;51.138;6.008;2023-06-14T09:20:37;36.00;17.45
66312;HTU21D;53114;51.138;6.008;2023-06-14T09:23:04;36.29;16.58
66312;HTU21D;53114;51.138;6.008;2023-06-14T09:25:31;36.56;15.90
66312;HTU21D;53114;51.138;6.008;2023-06-14T09:27:57;36.81;15.68
66312;HTU21D;53114;51.138;6.008;2023-06-14T09:30:22;36.72;14.39
66312;HTU21D;53114;51.138;6.008;2023-06-14T09:32:48;36.33;14.60
66312;HTU21D;53114;51.138;6.008;2023-06-14T09:35:18;36.24;14.47
66312;HTU21D;53114;51.138;6.008;2023-06-14T09:37:44;36.63;13.78
66312;HTU21D;53114;51.138;6.008;2023-06-14T09:40:10;37.28;12.91
66312;HTU21D;53114;51.138;6.008;2023-06-14T09:42:37;37.87;12.70
66312;HTU21D;53114;51.138;6.008;2023-06-14T09:45:04;38.64;11.57
66312;HTU21D;53114;51.138;6.008;2023-06-14T09:47:30;38.52;12.01
66312;HTU21D;53114;51.138;6.008;2023-06-14T09:49:56;38.24;11.80
66312;HTU21D;53114;51.138;6.008;2023-06-14T09:52:22;38.00;12.78
66312;HTU21D;53114;51.138;6.008;2023-06-14T09:54:49;38.00;12.43
66312;HTU21D;53114;51.138;6.008;2023-06-14T09:57:19;37.74;13.72
66312;HTU21D;53114;51.138;6.008;2023-06-14T09:59:47;37.56;14.90
66312;HTU21D;53114;51.138;6.008;2023-06-14T10:02:34;37.58;14.08
66312;HTU21D;53114;51.138;6.008;2023-06-14T10:05:11;37.86;12.83
66312;HTU21D;53114;51.138;6.008;2023-06-14T10:07:48;38.02;12.40
66312;HTU21D;53114;51.138;6.008;2023-06-14T10:10:14;38.17;12.43
66312;HTU21D;53114;51.138;6.008;2023-06-14T10:12:40;38.18;11.88
66312;HTU21D;53114;51.138;6.008;2023-06-14T10:15:10;37.76;12.39
66312;HTU21D;53114;51.138;6.008;2023-06-14T10:17:48;36.99;13.30
66312;HTU21D;53114;51.138;6.008;2023-06-14T10:20:35;36.11;14.70
66312;HTU21D;53114;51.138;6.008;2023-06-14T10:23:17;35.67;15.34
66312;HTU21D;53114;51.138;6.008;2023-06-14T10:25:43;35.40;15.19
66312;HTU21D;53114;51.138;6.008;2023-06-14T10:28:19;34.92;16.66
66312;HTU21D;53114;51.138;6.008;2023-06-14T10:33:36;33.74;18.86
66312;HTU21D;53114;51.138;6.008;2023-06-14T10:36:26;33.11;18.94
66312;HTU21D;53114;51.138;6.008;2023-06-14T10:39:17;32.27;19.31
66312;HTU21D;53114;51.138;6.008;2023-06-14T10:41:53;31.82;19.75
66312;HTU21D;53114;51.138;6.008;2023-06-14T10:46:47;31.30;20.26
66312;HTU21D;53114;51.138;6.008;2023-06-14T10:49:17;31.05;20.95
66312;HTU21D;53114;51.138;6.008;2023-06-14T10:51:52;31.00;21.40
66312;HTU21D;53114;51.138;6.008;2023-06-14T10:54:22;31.11;23.30
66312;HTU21D;53114;51.138;6.008;2023-06-14T10:56:52;31.33;22.79
66312;HTU21D;53114;51.138;6.008;2023-06-14T10:59:20;31.38;23.23
66312;HTU21D;53114;51.138;6.008;2023-06-14T11:04:20;31.25;22.88
66312;HTU21D;53114;51.138;6.008;2023-06-14T11:06:49;31.26;22.38
66312;HTU21D;53114;51.138;6.008;2023-06-14T11:09:48;31.34;22.63
66312;HTU21D;53114;51.138;6.008;2023-06-14T11:12:17;31.36;22.49
66312;HTU21D;53114;51.138;6.008;2023-06-14T11:14:46;31.40;23.28
66312;HTU21D;53114;51.138;6.008;2023-06-14T11:17:14;31.31;23.97
66312;HTU21D;53114;51.138;6.008;2023-06-14T11:19:41;31.27;25.62
66312;HTU21D;53114;51.138;6.008;2023-06-14T11:22:06;31.20;24.87
66312;HTU21D;53114;51.138;6.008;2023-06-14T11:24:33;31.14;25.23
66312;HTU21D;53114;51.138;6.008;2023-06-14T11:26:59;30.89;25.75
66312;HTU21D;53114;51.138;6.008;2023-06-14T11:29:25;30.90;25.49
66312;HTU21D;53114;51.138;6.008;2023-06-14T11:31:51;30.91;26.35
66312;HTU21D;53114;51.138;6.008;2023-06-14T11:34:17;30.84;25.20
66312;HTU21D;53114;51.138;6.008;2023-06-14T11:36:43;30.62;25.35
66312;HTU21D;53114;51.138;6.008;2023-06-14T11:39:09;30.46;25.13
66312;HTU21D;53114;51.138;6.008;2023-06-14T11:41:38;30.30;25.17
66312;HTU21D;53114;51.138;6.008;2023-06-14T11:44:05;30.10;26.02
66312;HTU21D;53114;51.138;6.008;2023-06-14T11:46:34;30.03;25.85
66312;HTU21D;53114;51.138;6.008;2023-06-14T11:49:01;30.12;25.07
66312;HTU21D;53114;51.138;6.008;2023-06-14T11:51:34;29.95;25.85
66312;HTU21D;53114;51.138;6.008;2023-06-14T11:54:05;29.89;26.01
66312;HTU21D;53114;51.138;6.008;2023-06-14T11:56:32;29.86;26.91
66312;HTU21D;53114;51.138;6.008;2023-06-14T11:58:58;29.86;28.55
66312;HTU21D;53114;51.138;6.008;2023-06-14T12:01:25;29.86;26.52
66312;HTU21D;53114;51.138;6.008;2023-06-14T12:03:54;29.88;25.37
66312;HTU21D;53114;51.138;6.008;2023-06-14T12:06:30;29.98;25.79
66312;HTU21D;53114;51.138;6.008;2023-06-14T12:09:08;30.12;25.22
66312;HTU21D;53114;51.138;6.008;2023-06-14T12:11:38;30.25;26.54
66312;HTU21D;53114;51.138;6.008;2023-06-14T12:14:05;30.28;26.34
66312;HTU21D;53114;51.138;6.008;2023-06-14T12:16:33;30.35;25.44
66312;HTU21D;53114;51.138;6.008;2023-06-14T12:19:14;30.30;23.97
66312;HTU21D;53114;51.138;6.008;2023-06-14T12:21:40;30.11;24.33
66312;HTU21D;53114;51.138;6.008;2023-06-14T12:24:07;29.93;23.98
66312;HTU21D;53114;51.138;6.008;2023-06-14T12:26:37;29.85;24.29
66312;HTU21D;53114;51.138;6.008;2023-06-14T12:29:05;29.82;25.17
66312;HTU21D;53114;51.138;6.008;2023-06-14T12:31:31;29.89;25.84
66312;HTU21D;53114;51.138;6.008;2023-06-14T12:33:57;29.85;24.62
66312;HTU21D;53114;51.138;6.008;2023-06-14T12:36:22;29.75;24.78
66312;HTU21D;53114;51.138;6.008;2023-06-14T12:38:48;29.77;25.18
66312;HTU21D;53114;51.138;6.008;2023-06-14T12:41:16;29.80;26.01
66312;HTU21D;53114;51.138;6.008;2023-06-14T12:43:42;29.68;25.78
66312;HTU21D;53114;51.138;6.008;2023-06-14T12:46:08;29.56;26.27
66312;HTU21D;53114;51.138;6.008;2023-06-14T12:48:34;29.49;25.72
66312;HTU21D;53114;51.138;6.008;2023-06-14T12:51:00;29.36;26.18
66312;HTU21D;53114;51.138;6.008;2023-06-14T12:53:26;29.20;25.99
66312;HTU21D;53114;51.138;6.008;2023-06-14T12:55:52;29.09;26.21
66312;HTU21D;53114;51.138;6.008;2023-06-14T12:58:17;29.16;27.94
66312;HTU21D;53114;51.138;6.008;2023-06-14T13:00:46;29.19;27.78
66312;HTU21D;53114;51.138;6.008;2023-06-14T13:03:12;29.24;27.04
66312;HTU21D;53114;51.138;6.008;2023-06-14T13:05:37;29.33;26.30
66312;HTU21D;53114;51.138;6.008;2023-06-14T13:08:07;29.41;25.96
66312;HTU21D;53114;51.138;6.008;2023-06-14T13:10:35;29.36;25.53
66312;HTU21D;53114;51.138;6.008;2023-06-14T13:13:01;29.27;25.14
66312;HTU21D;53114;51.138;6.008;2023-06-14T13:15:28;29.17;24.66
66312;HTU21D;53114;51.138;6.008;2023-06-14T13:17:54;29.01;25.37
66312;HTU21D;53114;51.138;6.008;2023-06-14T13:20:20;29.01;25.94
66312;HTU21D;53114;51.138;6.008;2023-06-14T13:22:47;29.08;25.72
66312;HTU21D;53114;51.138;6.008;2023-06-14T13:25:13;29.07;25.40
66312;HTU21D;53114;51.138;6.008;2023-06-14T13:27:39;29.04;25.27
66312;HTU21D;53114;51.138;6.008;2023-06-14T13:30:05;29.00;25.64
66312;HTU21D;53114;51.138;6.008;2023-06-14T13:32:32;29.01;26.70
66312;HTU21D;53114;51.138;6.008;2023-06-14T13:34:58;28.95;26.92
66312;HTU21D;53114;51.138;6.008;2023-06-14T13:37:24;28.84;27.08
66312;HTU21D;53114;51.138;6.008;2023-06-14T13:39:50;28.89;27.75
66312;HTU21D;53114;51.138;6.008;2023-06-14T13:42:15;28.89;27.58
66312;HTU21D;53114;51.138;6.008;2023-06-14T13:44:41;28.95;28.12
66312;HTU21D;53114;51.138;6.008;2023-06-14T13:47:07;29.01;28.37
66312;HTU21D;53114;51.138;6.008;2023-06-14T13:49:33;29.08;28.82
66312;HTU21D;53114;51.138;6.008;2023-06-14T13:52:01;29.00;28.18
66312;HTU21D;53114;51.138;6.008;2023-06-14T13:54:27;28.94;27.83
66312;HTU21D;53114;51.138;6.008;2023-06-14T13:56:53;28.85;28.32
66312;HTU21D;53114;51.138;6.008;2023-06-14T13:59:21;28.77;28.13
66312;HTU21D;53114;51.138;6.008;2023-06-14T14:01:49;28.74;28.35
66312;HTU21D;53114;51.138;6.008;2023-06-14T14:04:15;28.74;28.48
66312;HTU21D;53114;51.138;6.008;2023-06-14T14:06:42;28.62;27.36
66312;HTU21D;53114;51.138;6.008;2023-06-14T14:09:08;28.49;28.70
66312;HTU21D;53114;51.138;6.008;2023-06-14T14:11:34;28.57;28.61
66312;HTU21D;53114;51.138;6.008;2023-06-14T14:13:59;28.57;28.74
66312;HTU21D;53114;51.138;6.008;2023-06-14T14:16:26;28.55;28.74
66312;HTU21D;53114;51.138;6.008;2023-06-14T14:18:52;28.53;28.48
66312;HTU21D;53114;51.138;6.008;2023-06-14T14:21:18;28.43;29.01
66312;HTU21D;53114;51.138;6.008;2023-06-14T14:23:44;28.40;29.49
66312;HTU21D;53114;51.138;6.008;2023-06-14T14:26:11;28.47;29.39
66312;HTU21D;53114;51.138;6.008;2023-06-14T14:28:37;28.52;29.33
66312;HTU21D;53114;51.138;6.008;2023-06-14T14:31:03;28.54;29.45
66312;HTU21D;53114;51.138;6.008;2023-06-14T14:33:28;28.56;29.46
66312;HTU21D;53114;51.138;6.008;2023-06-14T14:35:55;28.63;29.30
66312;HTU21D;53114;51.138;6.008;2023-06-14T14:38:21;28.65;29.00
66312;HTU21D;53114;51.138;6.008;2023-06-14T14:40:47;28.65;29.21
66312;HTU21D;53114;51.138;6.008;2023-06-14T14:43:13;28.64;29.04
66312;HTU21D;53114;51.138;6.008;2023-06-14T14:45:39;28.63;28.77
66312;HTU21D;53114;51.138;6.008;2023-06-14T14:48:05;28.56;29.24
66312;HTU21D;53114;51.138;6.008;2023-06-14T14:50:33;28.53;29.05
66312;HTU21D;53114;51.138;6.008;2023-06-14T14:53:00;28.43;29.72
66312;HTU21D;53114;51.138;6.008;2023-06-14T14:55:26;28.43;29.56
66312;HTU21D;53114;51.138;6.008;2023-06-14T14:57:52;28.48;30.06
66312;HTU21D;53114;51.138;6.008;2023-06-14T15:00:18;28.46;29.37
66312;HTU21D;53114;51.138;6.008;2023-06-14T15:02:44;28.37;29.54
66312;HTU21D;53114;51.138;6.008;2023-06-14T15:05:11;28.35;29.47
66312;HTU21D;53114;51.138;6.008;2023-06-14T15:07:36;28.38;29.17
66312;HTU21D;53114;51.138;6.008;2023-06-14T15:10:06;28.34;28.62
66312;HTU21D;53114;51.138;6.008;2023-06-14T15:12:32;28.20;28.45
66312;HTU21D;53114;51.138;6.008;2023-06-14T15:14:58;28.21;28.36
66312;HTU21D;53114;51.138;6.008;2023-06-14T15:17:24;28.30;29.39
66312;HTU21D;53114;51.138;6.008;2023-06-14T15:19:50;28.39;28.58
66312;HTU21D;53114;51.138;6.008;2023-06-14T15:22:16;28.46;29.03
66312;HTU21D;53114;51.138;6.008;2023-06-14T15:24:42;28.56;28.90